Gambler — LELC — position and weather

sailwx.info

Track history (hours):
 
Tides and Currents Weather Stations Pressure Air Temp Water Temp Dewpoint Dewpoint Depression Visibility Wind Speed Wind Dir Waves Ship Positions

Gambler

Last reported at 2016-Dec-03 04:33 UTC. Time now 2016-Dec-11 04:25 UTC.
Position N 61°59' E 005°08'.

Length 134 m.

Type: Fishing. MMSI: 258412000.

Date/timePositionNaut miles runAvg speedWind from/ knotsBaromVisibWave heightAir tempDewpointWater temp
2016-Dec-03 04:33N 61°59' E 005°08'0 0.0
2016-Dec-03 03:34N 61°59' E 005°08'0 0.0
2016-Dec-03 02:32N 61°59' E 005°08'0 0.0
2016-Dec-03 01:33N 61°59' E 005°08'0 0.0
2016-Dec-03 00:33N 61°59' E 005°08'0 0.0
2016-Dec-02 23:33N 61°59' E 005°08'0 0.0
2016-Dec-02 22:33N 61°59' E 005°08'0 0.0
2016-Dec-02 21:33N 61°59' E 005°08'0 0.0
2016-Dec-02 20:33N 61°59' E 005°08'0 0.0
2016-Dec-02 19:33N 61°59' E 005°08'0 0.0
2016-Dec-02 18:32N 61°59' E 005°08'0 0.0
2016-Dec-02 17:33N 61°59' E 005°08'0 0.0
2016-Dec-02 16:33N 61°59' E 005°08'0 0.0
2016-Dec-02 15:33N 61°59' E 005°08'0 0.0
2016-Dec-02 14:34N 61°59' E 005°08'0 0.0
2016-Dec-02 13:33N 61°59' E 005°08'0 0.0
2016-Dec-02 12:32N 61°59' E 005°08'0 0.0
2016-Dec-02 11:33N 61°59' E 005°08'0 0.0
2016-Dec-02 10:33N 61°59' E 005°08'0 0.0
2016-Dec-02 09:33N 61°59' E 005°08'0 0.0
2016-Dec-02 08:33N 61°59' E 005°08'0 0.0
2016-Dec-02 07:32N 61°59' E 005°08'0 0.0
2016-Dec-02 06:30N 61°59' E 005°08'0 0.0
2016-Dec-02 05:33N 61°59' E 005°08'0 0.0
2016-Dec-02 04:33N 61°59' E 005°08'0 0.0
2016-Dec-02 03:33N 61°59' E 005°08'0 0.0
2016-Dec-02 02:33N 61°59' E 005°08'3 2.6
2016-Dec-02 01:20N 61°56' E 005°07'0 0.0
2016-Dec-02 00:33N 61°56' E 005°07'0 0.0
2016-Dec-01 23:19N 61°56' E 005°07'0 0.0
2016-Dec-01 22:33N 61°56' E 005°07'0 0.0
2016-Dec-01 21:33N 61°56' E 005°07'0 0.0
2016-Dec-01 20:33N 61°56' E 005°07'0 0.0
2016-Dec-01 19:33N 61°56' E 005°07'0 0.0
2016-Dec-01 18:33N 61°56' E 005°07'0 0.0
2016-Dec-01 17:33N 61°56' E 005°07'0 0.0
2016-Dec-01 16:33N 61°56' E 005°07'0 0.0
2016-Dec-01 15:32N 61°56' E 005°07'0 0.0
2016-Dec-01 14:33N 61°56' E 005°07'0 0.0
2016-Dec-01 13:33N 61°56' E 005°07'8 7.9
2016-Dec-01 12:34N 62°04' E 005°08'13 5.9
2016-Dec-01 10:20N 62°16' E 005°18'6 7.5
2016-Dec-01 09:33N 62°18' E 005°30'6 6.2
2016-Dec-01 08:34N 62°19' E 005°43'7 7.1
2016-Dec-01 07:32N 62°25' E 005°51'7 7.4
2016-Dec-01 06:33N 62°29' E 006°05'6 5.5
2016-Dec-01 05:32N 62°33' E 006°14'1 1.3
2016-Dec-01 04:33N 62°33' E 006°16'0 0.0
2016-Dec-01 03:32N 62°33' E 006°16'0 0.2
2016-Dec-01 02:33N 62°33' E 006°16'3 2.7
2016-Dec-01 01:33N 62°34' E 006°10'0 0.1
2016-Dec-01 00:33N 62°34' E 006°10'0 0.1
2016-Nov-30 23:33N 62°34' E 006°11'4 4.0
2016-Nov-30 22:33N 62°37' E 006°18'7 7.0
2016-Nov-30 21:33N 62°42' E 006°28'7 6.7
2016-Nov-30 20:33N 62°47' E 006°36'7 6.7
2016-Nov-30 19:33N 62°53' E 006°44'7 7.1
2016-Nov-30 18:33N 62°59' E 006°53'7 6.7
2016-Nov-30 17:33N 63°01' E 007°07'7 6.5
2016-Nov-30 16:33N 63°04' E 007°20'6 5.8
2016-Nov-30 15:33N 63°06' E 007°32'8 7.5
2016-Nov-30 14:33N 63°11' E 007°45'7 6.7
2016-Nov-30 13:32N 63°14' E 007°59'7 7.2
2016-Nov-30 12:32N 63°18' E 008°12'7 6.9
2016-Nov-30 11:33N 63°22' E 008°24'7 6.6
2016-Nov-30 10:33N 63°25' E 008°37'8 8.1
2016-Nov-30 09:33N 63°28' E 008°54'8 8.0
2016-Nov-30 08:33N 63°31' E 009°10'8 8.2
2016-Nov-30 07:33N 63°35' E 009°26'8 7.6
2016-Nov-30 06:33N 63°43' E 009°31'2 2.2
2016-Nov-30 05:33N 63°44' E 009°35'0 0.0
2016-Nov-30 04:33N 63°44' E 009°35'0 0.0
2016-Nov-30 03:33N 63°44' E 009°35'0 0.0
2016-Nov-30 02:33N 63°44' E 009°35'0 0.0
2016-Nov-30 01:33N 63°44' E 009°35'0 0.0
2016-Nov-30 00:33N 63°44' E 009°35'0 0.0
2016-Nov-29 23:33N 63°44' E 009°35'0 0.0
2016-Nov-29 22:33N 63°44' E 009°35'0 0.0
2016-Nov-29 21:33N 63°44' E 009°35'0 0.0
2016-Nov-29 20:33N 63°44' E 009°35'0 0.0
2016-Nov-29 19:33N 63°44' E 009°35'0 0.0
2016-Nov-29 18:32N 63°44' E 009°35'0 0.0
2016-Nov-29 17:32N 63°44' E 009°35'0 0.0
2016-Nov-29 16:33N 63°44' E 009°35'0 0.0
2016-Nov-29 15:32N 63°44' E 009°35'0 0.0
2016-Nov-29 14:33N 63°44' E 009°35'0 0.0
2016-Nov-29 13:33N 63°44' E 009°35'0 0.0
2016-Nov-29 12:33N 63°44' E 009°35'0 0.0
2016-Nov-29 11:33N 63°44' E 009°35'0 0.0
2016-Nov-29 10:33N 63°44' E 009°35'0 0.0
2016-Nov-29 09:33N 63°44' E 009°35'0 0.0
2016-Nov-29 08:33N 63°44' E 009°35'0 0.0
2016-Nov-29 07:32N 63°44' E 009°35'0 0.0
2016-Nov-29 06:33N 63°44' E 009°35'0 0.0
2016-Nov-29 05:33N 63°44' E 009°35'0 0.0
2016-Nov-29 04:33N 63°44' E 009°35'0 0.0
2016-Nov-29 03:33N 63°44' E 009°35'0 0.0
2016-Nov-29 02:33N 63°44' E 009°35'0 0.0
2016-Nov-29 01:33N 63°44' E 009°35'0 0.0
2016-Nov-29 00:33N 63°44' E 009°35'0 0.0
2016-Nov-28 23:33N 63°44' E 009°35'0 0.0
2016-Nov-28 22:32N 63°44' E 009°35'153155.6
2016-Nov-28 21:33N 62°12' E 005°05'1110.6
2016-Nov-28 20:33N 62°17' E 005°25'9 9.4
2016-Nov-28 19:34N 62°19' E 005°45'134134.0
2016-Nov-28 18:33N 63°44' E 009°35'0 0.0
2016-Nov-28 17:33N 63°44' E 009°35'0 0.0
2016-Nov-28 16:33N 63°44' E 009°35'0 0.0
2016-Nov-28 15:33N 63°44' E 009°35'0 0.0
2016-Nov-28 14:33N 63°44' E 009°35'0 0.0
2016-Nov-28 13:33N 63°44' E 009°35'0 0.0
2016-Nov-28 12:33N 63°44' E 009°35'0 0.0
2016-Nov-28 11:33N 63°44' E 009°35'1 1.3
2016-Nov-28 10:33N 63°45' E 009°35'7976.9
2016-Nov-28 09:32N 63°01' E 007°08'1010.0
2016-Nov-28 08:33N 63°05' E 007°28'10 9.8
2016-Nov-28 07:33N 63°11' E 007°46'1010.1
2016-Nov-28 06:33N 63°16' E 008°06'4948.4
2016-Nov-28 05:32N 63°44' E 009°36'0 0.0
2016-Nov-28 04:32N 63°44' E 009°36'1818.0
2016-Nov-28 03:33N 63°31' E 009°08'1110.7
2016-Nov-28 02:33N 63°37' E 009°28'7 7.3
2016-Nov-28 01:33N 63°44' E 009°35'0 0.0
2016-Nov-28 00:33N 63°44' E 009°35'0 0.1
2016-Nov-27 23:33N 63°44' E 009°36'0 0.1
2016-Nov-27 22:33N 63°44' E 009°35'0 0.0
2016-Nov-27 21:33N 63°44' E 009°35'0 0.1
2016-Nov-27 20:33N 63°44' E 009°36'0 0.1
2016-Nov-27 19:33N 63°44' E 009°35'0 0.0
2016-Nov-27 18:33N 63°44' E 009°35'0 0.0
2016-Nov-27 17:33N 63°44' E 009°35'0 0.0
2016-Nov-27 16:33N 63°44' E 009°35'0 0.0
2016-Nov-27 15:33N 63°44' E 009°35'0 0.0
2016-Nov-27 14:33N 63°44' E 009°35'0 0.0
2016-Nov-27 13:33N 63°44' E 009°35'0 0.0
2016-Nov-27 12:33N 63°44' E 009°35'0 0.0
2016-Nov-27 11:33N 63°44' E 009°35'0 0.0
2016-Nov-27 10:33N 63°44' E 009°35'0 0.0
2016-Nov-27 09:33N 63°44' E 009°35'0 0.0
2016-Nov-27 08:33N 63°44' E 009°35'0 0.0
2016-Nov-27 07:33N 63°44' E 009°35'0 0.0
2016-Nov-27 06:33N 63°44' E 009°35'0 0.0
2016-Nov-27 05:33N 63°44' E 009°35'0 0.0
2016-Nov-27 04:33N 63°44' E 009°35'0 0.0
2016-Nov-27 03:33N 63°44' E 009°35'0 0.0
2016-Nov-27 02:33N 63°44' E 009°35'0 0.0
2016-Nov-27 01:33N 63°44' E 009°35'0 0.0
2016-Nov-27 00:33N 63°44' E 009°35'0 0.0
2016-Nov-26 23:33N 63°44' E 009°35'0 0.0
2016-Nov-26 22:33N 63°44' E 009°35'0 0.0
2016-Nov-26 21:33N 63°44' E 009°35'0 0.0
2016-Nov-26 20:33N 63°44' E 009°35'0 0.0
2016-Nov-26 19:33N 63°44' E 009°35'0 0.2
2016-Nov-26 18:33N 63°44' E 009°35'0 0.1
2016-Nov-26 17:33N 63°44' E 009°36'0 0.0
2016-Nov-26 16:33N 63°44' E 009°36'0 0.0
2016-Nov-26 15:33N 63°44' E 009°36'0 0.0
2016-Nov-26 14:33N 63°44' E 009°36'0 0.0
2016-Nov-26 13:33N 63°44' E 009°36'0 0.0
2016-Nov-26 12:33N 63°44' E 009°36'0 0.0
2016-Nov-26 11:33N 63°44' E 009°36'0 0.0
2016-Nov-26 10:33N 63°44' E 009°36'0 0.0
2016-Nov-26 09:33N 63°44' E 009°36'0 0.0
2016-Nov-26 08:33N 63°44' E 009°36'0 0.0
2016-Nov-26 07:33N 63°44' E 009°36'0 0.0
2016-Nov-26 06:33N 63°44' E 009°36'0 0.0
2016-Nov-26 05:33N 63°44' E 009°36'0 0.0
2016-Nov-26 04:33N 63°44' E 009°36'0 0.0
2016-Nov-26 03:33N 63°44' E 009°36'0 0.0
2016-Nov-26 02:33N 63°44' E 009°36'0 0.0
2016-Nov-26 01:33N 63°44' E 009°36'0 0.0
2016-Nov-26 00:33N 63°44' E 009°36'0 0.0
2016-Nov-25 23:34N 63°44' E 009°36'0 0.0
2016-Nov-25 22:33N 63°44' E 009°36'0 0.0
2016-Nov-25 21:33N 63°44' E 009°36'0 0.0
2016-Nov-25 20:33N 63°44' E 009°36'0 0.0
2016-Nov-25 19:33N 63°44' E 009°36'0 0.0
2016-Nov-25 18:33N 63°44' E 009°36'0 0.0
2016-Nov-25 17:33N 63°44' E 009°36'0 0.0
2016-Nov-25 16:33N 63°44' E 009°36'0 0.0
2016-Nov-25 15:33N 63°44' E 009°36'0 0.0
2016-Nov-25 14:33N 63°44' E 009°36'0 0.0
2016-Nov-25 13:33N 63°44' E 009°36'0 0.0
2016-Nov-25 12:33N 63°44' E 009°36'0 0.0
2016-Nov-25 11:33N 63°44' E 009°36'0 0.0
2016-Nov-25 10:33N 63°44' E 009°36'0 0.0
2016-Nov-25 09:33N 63°44' E 009°36'0 0.0
2016-Nov-25 08:33N 63°44' E 009°36'0 0.0
2016-Nov-25 07:33N 63°44' E 009°36'0 0.0
2016-Nov-25 06:33N 63°44' E 009°36'0 0.0
2016-Nov-25 05:33N 63°44' E 009°36'0 0.0
2016-Nov-25 04:33N 63°44' E 009°36'0 0.0
2016-Nov-25 03:33N 63°44' E 009°36'0 0.0
2016-Nov-25 02:33N 63°44' E 009°36'0 0.0
2016-Nov-25 01:33N 63°44' E 009°36'0 0.0
2016-Nov-25 00:33N 63°44' E 009°36'0 0.0
2016-Nov-24 23:33N 63°44' E 009°36'0 0.0
2016-Nov-24 22:33N 63°44' E 009°36'0 0.0
2016-Nov-24 21:33N 63°44' E 009°36'6 6.1
2016-Nov-24 20:33N 63°43' E 009°22'9 9.1
2016-Nov-24 19:33N 63°35' E 009°16'1110.8
2016-Nov-24 18:33N 63°28' E 008°56'1211.7
2016-Nov-24 17:33N 63°24' E 008°32'1212.0
2016-Nov-24 16:33N 63°17' E 008°10'1211.9
2016-Nov-24 15:33N 63°11' E 007°47'1211.8
2016-Nov-24 14:33N 63°04' E 007°25'2311.3
2016-Nov-24 12:32N 62°52' E 006°43'1411.6
2016-Nov-24 11:22N 62°41' E 006°26'  
Track history (hours):
 
Tides and Currents Weather Stations Pressure Air Temp Water Temp Dewpoint Dewpoint Depression Visibility Wind Speed Wind Dir Waves Ship Positions

Gambler

Last reported at 2016-Dec-03 04:33 UTC. Time now 2016-Dec-11 04:25 UTC.
Position N 61°59' E 005°08'.

Length 134 m.

Type: Fishing. MMSI: 258412000.

Date/timePositionNaut miles runAvg speedWind from/ knotsBaromVisibWave heightAir tempDewpointWater temp
2016-Dec-03 04:33N 61°59' E 005°08'0 0.0
2016-Dec-03 03:34N 61°59' E 005°08'0 0.0
2016-Dec-03 02:32N 61°59' E 005°08'0 0.0
2016-Dec-03 01:33N 61°59' E 005°08'0 0.0
2016-Dec-03 00:33N 61°59' E 005°08'0 0.0
2016-Dec-02 23:33N 61°59' E 005°08'0 0.0
2016-Dec-02 22:33N 61°59' E 005°08'0 0.0
2016-Dec-02 21:33N 61°59' E 005°08'0 0.0
2016-Dec-02 20:33N 61°59' E 005°08'0 0.0
2016-Dec-02 19:33N 61°59' E 005°08'0 0.0
2016-Dec-02 18:32N 61°59' E 005°08'0 0.0
2016-Dec-02 17:33N 61°59' E 005°08'0 0.0
2016-Dec-02 16:33N 61°59' E 005°08'0 0.0
2016-Dec-02 15:33N 61°59' E 005°08'0 0.0
2016-Dec-02 14:34N 61°59' E 005°08'0 0.0
2016-Dec-02 13:33N 61°59' E 005°08'0 0.0
2016-Dec-02 12:32N 61°59' E 005°08'0 0.0
2016-Dec-02 11:33N 61°59' E 005°08'0 0.0
2016-Dec-02 10:33N 61°59' E 005°08'0 0.0
2016-Dec-02 09:33N 61°59' E 005°08'0 0.0
2016-Dec-02 08:33N 61°59' E 005°08'0 0.0
2016-Dec-02 07:32N 61°59' E 005°08'0 0.0
2016-Dec-02 06:30N 61°59' E 005°08'0 0.0
2016-Dec-02 05:33N 61°59' E 005°08'0 0.0
2016-Dec-02 04:33N 61°59' E 005°08'0 0.0
2016-Dec-02 03:33N 61°59' E 005°08'0 0.0
2016-Dec-02 02:33N 61°59' E 005°08'3 2.6
2016-Dec-02 01:20N 61°56' E 005°07'0 0.0
2016-Dec-02 00:33N 61°56' E 005°07'0 0.0
2016-Dec-01 23:19N 61°56' E 005°07'0 0.0
2016-Dec-01 22:33N 61°56' E 005°07'0 0.0
2016-Dec-01 21:33N 61°56' E 005°07'0 0.0
2016-Dec-01 20:33N 61°56' E 005°07'0 0.0
2016-Dec-01 19:33N 61°56' E 005°07'0 0.0
2016-Dec-01 18:33N 61°56' E 005°07'0 0.0
2016-Dec-01 17:33N 61°56' E 005°07'0 0.0
2016-Dec-01 16:33N 61°56' E 005°07'0 0.0
2016-Dec-01 15:32N 61°56' E 005°07'0 0.0
2016-Dec-01 14:33N 61°56' E 005°07'0 0.0
2016-Dec-01 13:33N 61°56' E 005°07'8 7.9
2016-Dec-01 12:34N 62°04' E 005°08'13 5.9
2016-Dec-01 10:20N 62°16' E 005°18'6 7.5
2016-Dec-01 09:33N 62°18' E 005°30'6 6.2
2016-Dec-01 08:34N 62°19' E 005°43'7 7.1
2016-Dec-01 07:32N 62°25' E 005°51'7 7.4
2016-Dec-01 06:33N 62°29' E 006°05'6 5.5
2016-Dec-01 05:32N 62°33' E 006°14'1 1.3
2016-Dec-01 04:33N 62°33' E 006°16'0 0.0
2016-Dec-01 03:32N 62°33' E 006°16'0 0.2
2016-Dec-01 02:33N 62°33' E 006°16'3 2.7
2016-Dec-01 01:33N 62°34' E 006°10'0 0.1
2016-Dec-01 00:33N 62°34' E 006°10'0 0.1
2016-Nov-30 23:33N 62°34' E 006°11'4 4.0
2016-Nov-30 22:33N 62°37' E 006°18'7 7.0
2016-Nov-30 21:33N 62°42' E 006°28'7 6.7
2016-Nov-30 20:33N 62°47' E 006°36'7 6.7
2016-Nov-30 19:33N 62°53' E 006°44'7 7.1
2016-Nov-30 18:33N 62°59' E 006°53'7 6.7
2016-Nov-30 17:33N 63°01' E 007°07'7 6.5
2016-Nov-30 16:33N 63°04' E 007°20'6 5.8
2016-Nov-30 15:33N 63°06' E 007°32'8 7.5
2016-Nov-30 14:33N 63°11' E 007°45'7 6.7
2016-Nov-30 13:32N 63°14' E 007°59'7 7.2
2016-Nov-30 12:32N 63°18' E 008°12'7 6.9
2016-Nov-30 11:33N 63°22' E 008°24'7 6.6
2016-Nov-30 10:33N 63°25' E 008°37'8 8.1
2016-Nov-30 09:33N 63°28' E 008°54'8 8.0
2016-Nov-30 08:33N 63°31' E 009°10'8 8.2
2016-Nov-30 07:33N 63°35' E 009°26'8 7.6
2016-Nov-30 06:33N 63°43' E 009°31'2 2.2
2016-Nov-30 05:33N 63°44' E 009°35'0 0.0
2016-Nov-30 04:33N 63°44' E 009°35'0 0.0
2016-Nov-30 03:33N 63°44' E 009°35'0 0.0
2016-Nov-30 02:33N 63°44' E 009°35'0 0.0
2016-Nov-30 01:33N 63°44' E 009°35'0 0.0
2016-Nov-30 00:33N 63°44' E 009°35'0 0.0
2016-Nov-29 23:33N 63°44' E 009°35'0 0.0
2016-Nov-29 22:33N 63°44' E 009°35'0 0.0
2016-Nov-29 21:33N 63°44' E 009°35'0 0.0
2016-Nov-29 20:33N 63°44' E 009°35'0 0.0
2016-Nov-29 19:33N 63°44' E 009°35'0 0.0
2016-Nov-29 18:32N 63°44' E 009°35'0 0.0
2016-Nov-29 17:32N 63°44' E 009°35'0 0.0
2016-Nov-29 16:33N 63°44' E 009°35'0 0.0
2016-Nov-29 15:32N 63°44' E 009°35'0 0.0
2016-Nov-29 14:33N 63°44' E 009°35'0 0.0
2016-Nov-29 13:33N 63°44' E 009°35'0 0.0
2016-Nov-29 12:33N 63°44' E 009°35'0 0.0
2016-Nov-29 11:33N 63°44' E 009°35'0 0.0
2016-Nov-29 10:33N 63°44' E 009°35'0 0.0
2016-Nov-29 09:33N 63°44' E 009°35'0 0.0
2016-Nov-29 08:33N 63°44' E 009°35'0 0.0
2016-Nov-29 07:32N 63°44' E 009°35'0 0.0
2016-Nov-29 06:33N 63°44' E 009°35'0 0.0
2016-Nov-29 05:33N 63°44' E 009°35'0 0.0
2016-Nov-29 04:33N 63°44' E 009°35'0 0.0
2016-Nov-29 03:33N 63°44' E 009°35'0 0.0
2016-Nov-29 02:33N 63°44' E 009°35'0 0.0
2016-Nov-29 01:33N 63°44' E 009°35'0 0.0
2016-Nov-29 00:33N 63°44' E 009°35'0 0.0
2016-Nov-28 23:33N 63°44' E 009°35'0 0.0
2016-Nov-28 22:32N 63°44' E 009°35'153155.6
2016-Nov-28 21:33N 62°12' E 005°05'1110.6
2016-Nov-28 20:33N 62°17' E 005°25'9 9.4
2016-Nov-28 19:34N 62°19' E 005°45'134134.0
2016-Nov-28 18:33N 63°44' E 009°35'0 0.0
2016-Nov-28 17:33N 63°44' E 009°35'0 0.0
2016-Nov-28 16:33N 63°44' E 009°35'0 0.0
2016-Nov-28 15:33N 63°44' E 009°35'0 0.0
2016-Nov-28 14:33N 63°44' E 009°35'0 0.0
2016-Nov-28 13:33N 63°44' E 009°35'0 0.0
2016-Nov-28 12:33N 63°44' E 009°35'0 0.0
2016-Nov-28 11:33N 63°44' E 009°35'1 1.3
2016-Nov-28 10:33N 63°45' E 009°35'7976.9
2016-Nov-28 09:32N 63°01' E 007°08'1010.0
2016-Nov-28 08:33N 63°05' E 007°28'10 9.8
2016-Nov-28 07:33N 63°11' E 007°46'1010.1
2016-Nov-28 06:33N 63°16' E 008°06'4948.4
2016-Nov-28 05:32N 63°44' E 009°36'0 0.0
2016-Nov-28 04:32N 63°44' E 009°36'1818.0
2016-Nov-28 03:33N 63°31' E 009°08'1110.7
2016-Nov-28 02:33N 63°37' E 009°28'7 7.3
2016-Nov-28 01:33N 63°44' E 009°35'0 0.0
2016-Nov-28 00:33N 63°44' E 009°35'0 0.1
2016-Nov-27 23:33N 63°44' E 009°36'0 0.1
2016-Nov-27 22:33N 63°44' E 009°35'0 0.0
2016-Nov-27 21:33N 63°44' E 009°35'0 0.1
2016-Nov-27 20:33N 63°44' E 009°36'0 0.1
2016-Nov-27 19:33N 63°44' E 009°35'0 0.0
2016-Nov-27 18:33N 63°44' E 009°35'0 0.0
2016-Nov-27 17:33N 63°44' E 009°35'0 0.0
2016-Nov-27 16:33N 63°44' E 009°35'0 0.0
2016-Nov-27 15:33N 63°44' E 009°35'0 0.0
2016-Nov-27 14:33N 63°44' E 009°35'0 0.0
2016-Nov-27 13:33N 63°44' E 009°35'0 0.0
2016-Nov-27 12:33N 63°44' E 009°35'0 0.0
2016-Nov-27 11:33N 63°44' E 009°35'0 0.0
2016-Nov-27 10:33N 63°44' E 009°35'0 0.0
2016-Nov-27 09:33N 63°44' E 009°35'0 0.0
2016-Nov-27 08:33N 63°44' E 009°35'0 0.0
2016-Nov-27 07:33N 63°44' E 009°35'0 0.0
2016-Nov-27 06:33N 63°44' E 009°35'0 0.0
2016-Nov-27 05:33N 63°44' E 009°35'0 0.0
2016-Nov-27 04:33N 63°44' E 009°35'0 0.0
2016-Nov-27 03:33N 63°44' E 009°35'0 0.0
2016-Nov-27 02:33N 63°44' E 009°35'0 0.0
2016-Nov-27 01:33N 63°44' E 009°35'0 0.0
2016-Nov-27 00:33N 63°44' E 009°35'0 0.0
2016-Nov-26 23:33N 63°44' E 009°35'0 0.0
2016-Nov-26 22:33N 63°44' E 009°35'0 0.0
2016-Nov-26 21:33N 63°44' E 009°35'0 0.0
2016-Nov-26 20:33N 63°44' E 009°35'0 0.0
2016-Nov-26 19:33N 63°44' E 009°35'0 0.2
2016-Nov-26 18:33N 63°44' E 009°35'0 0.1
2016-Nov-26 17:33N 63°44' E 009°36'0 0.0
2016-Nov-26 16:33N 63°44' E 009°36'0 0.0
2016-Nov-26 15:33N 63°44' E 009°36'0 0.0
2016-Nov-26 14:33N 63°44' E 009°36'0 0.0
2016-Nov-26 13:33N 63°44' E 009°36'0 0.0
2016-Nov-26 12:33N 63°44' E 009°36'0 0.0
2016-Nov-26 11:33N 63°44' E 009°36'0 0.0
2016-Nov-26 10:33N 63°44' E 009°36'0 0.0
2016-Nov-26 09:33N 63°44' E 009°36'0 0.0
2016-Nov-26 08:33N 63°44' E 009°36'0 0.0
2016-Nov-26 07:33N 63°44' E 009°36'0 0.0
2016-Nov-26 06:33N 63°44' E 009°36'0 0.0
2016-Nov-26 05:33N 63°44' E 009°36'0 0.0
2016-Nov-26 04:33N 63°44' E 009°36'0 0.0
2016-Nov-26 03:33N 63°44' E 009°36'0 0.0
2016-Nov-26 02:33N 63°44' E 009°36'0 0.0
2016-Nov-26 01:33N 63°44' E 009°36'0 0.0
2016-Nov-26 00:33N 63°44' E 009°36'0 0.0
2016-Nov-25 23:34N 63°44' E 009°36'0 0.0
2016-Nov-25 22:33N 63°44' E 009°36'0 0.0
2016-Nov-25 21:33N 63°44' E 009°36'0 0.0
2016-Nov-25 20:33N 63°44' E 009°36'0 0.0
2016-Nov-25 19:33N 63°44' E 009°36'0 0.0
2016-Nov-25 18:33N 63°44' E 009°36'0 0.0
2016-Nov-25 17:33N 63°44' E 009°36'0 0.0
2016-Nov-25 16:33N 63°44' E 009°36'0 0.0
2016-Nov-25 15:33N 63°44' E 009°36'0 0.0
2016-Nov-25 14:33N 63°44' E 009°36'0 0.0
2016-Nov-25 13:33N 63°44' E 009°36'0 0.0
2016-Nov-25 12:33N 63°44' E 009°36'0 0.0
2016-Nov-25 11:33N 63°44' E 009°36'0 0.0
2016-Nov-25 10:33N 63°44' E 009°36'0 0.0
2016-Nov-25 09:33N 63°44' E 009°36'0 0.0
2016-Nov-25 08:33N 63°44' E 009°36'0 0.0
2016-Nov-25 07:33N 63°44' E 009°36'0 0.0
2016-Nov-25 06:33N 63°44' E 009°36'0 0.0
2016-Nov-25 05:33N 63°44' E 009°36'0 0.0
2016-Nov-25 04:33N 63°44' E 009°36'0 0.0
2016-Nov-25 03:33N 63°44' E 009°36'0 0.0
2016-Nov-25 02:33N 63°44' E 009°36'0 0.0
2016-Nov-25 01:33N 63°44' E 009°36'0 0.0
2016-Nov-25 00:33N 63°44' E 009°36'0 0.0
2016-Nov-24 23:33N 63°44' E 009°36'0 0.0
2016-Nov-24 22:33N 63°44' E 009°36'0 0.0
2016-Nov-24 21:33N 63°44' E 009°36'6 6.1
2016-Nov-24 20:33N 63°43' E 009°22'9 9.1
2016-Nov-24 19:33N 63°35' E 009°16'1110.8
2016-Nov-24 18:33N 63°28' E 008°56'1211.7
2016-Nov-24 17:33N 63°24' E 008°32'1212.0
2016-Nov-24 16:33N 63°17' E 008°10'1211.9
2016-Nov-24 15:33N 63°11' E 007°47'1211.8
2016-Nov-24 14:33N 63°04' E 007°25'2311.3
2016-Nov-24 12:32N 62°52' E 006°43'1411.6
2016-Nov-24 11:22N 62°41' E 006°26'  

Dump ship's entire track history